Time;durP1;ratioP1;P1;durP2;ratioP2;P2;SDS_P1;SDS_P2;PMS_P1;PMS_P2;Temp;Humidity;BMP_temperature;BMP_pressure;BME280_temperature;BME280_humidity;BME280_pressure;Samples;Min_cycle;Max_cycle;Signal;HPM_P1;HPM_P2
2023/09/23 00:00:55;;;;;;;;;;;;;;;16.91;79.29;100481.36;106394;1259;66803;-82
2023/09/23 00:03:36;;;;;;;;;;;;;;;16.91;79.30;100485.44;106283;1260;125363;-83
2023/09/23 00:06:03;;;;;;;;;;;;;;;16.93;79.45;100486.15;106324;1265;60454;-83
2023/09/23 00:08:30;;;;;;;;;;;;;;;16.92;79.39;100485.08;106399;1259;60484;-81
2023/09/23 00:10:57;;;;;;;;;;;;;;;16.92;79.39;100493.23;106341;1263;124605;-80
2023/09/23 00:13:25;;;;;;;;;;;;;;;16.92;79.43;100494.30;106349;1259;66469;-81
2023/09/23 00:15:52;;;;;;;;;;;;;;;16.91;79.48;100485.79;106268;1260;125679;-81
2023/09/23 00:18:19;;;;;;;;;;;;;;;16.90;79.36;100475.52;106361;1259;60387;-80
2023/09/23 00:20:46;;;;;;;;;;;;;;;16.88;79.29;100469.70;106278;1265;60364;-81
2023/09/23 00:23:13;;;;;;;;;;;;;;;16.90;79.46;100481.19;106288;1259;124318;-83
2023/09/23 00:25:40;;;;;;;;;;;;;;;16.91;79.50;100486.33;106324;1259;65323;-81
2023/09/23 00:28:11;;;;;;;;;;;;;;;16.93;79.50;100493.94;106257;1259;124592;-82
2023/09/23 00:30:38;;;;;;;;;;;;;;;16.92;79.35;100490.75;106311;1265;60406;-81
2023/09/23 00:33:05;;;;;;;;;;;;;;;16.89;79.26;100494.50;106299;1263;124731;-81
2023/09/23 00:35:34;;;;;;;;;;;;;;;16.88;79.33;100497.86;106162;1261;72239;-81
2023/09/23 00:38:01;;;;;;;;;;;;;;;16.87;79.23;100490.60;106419;1259;66089;-81
2023/09/23 00:40:32;;;;;;;;;;;;;;;16.86;79.37;100486.89;106234;1258;124814;-81
2023/09/23 00:43:17;;;;;;;;;;;;;;;16.87;79.41;100495.05;106415;1263;61110;-81
2023/09/23 00:45:48;;;;;;;;;;;;;;;16.85;79.40;100499.83;106361;1259;124779;-81
2023/09/23 00:48:18;;;;;;;;;;;;;;;16.87;79.70;100505.85;106561;1261;72222;-81
2023/09/23 00:50:46;;;;;;;;;;;;;;;16.88;79.69;100513.29;106267;1261;66536;-81
2023/09/23 00:53:13;;;;;;;;;;;;;;;16.85;79.50;100515.24;106225;1263;124419;-81
2023/09/23 00:55:42;;;;;;;;;;;;;;;16.85;79.66;100506.39;106243;1260;59010;-81
2023/09/23 00:58:14;;;;;;;;;;;;;;;16.84;79.78;100505.33;106303;1262;124511;-81
2023/09/23 01:00:43;;;;;;;;;;;;;;;16.85;79.81;100507.80;106344;1260;73952;-81
2023/09/23 01:03:10;;;;;;;;;;;;;;;16.83;79.78;100519.49;106169;1259;124977;-81
2023/09/23 01:05:39;;;;;;;;;;;;;;;16.83;79.86;100519.31;106260;1259;73249;-81
2023/09/23 01:08:07;;;;;;;;;;;;;;;16.80;79.84;100520.55;106276;1260;59558;-81
2023/09/23 01:10:33;;;;;;;;;;;;;;;16.78;79.84;100521.27;106314;1260;124482;-81
2023/09/23 01:13:00;;;;;;;;;;;;;;;16.75;79.88;100521.28;106310;1259;72715;-80
2023/09/23 01:15:28;;;;;;;;;;;;;;;16.74;79.87;100515.26;106320;1261;124946;-81
2023/09/23 01:17:57;;;;;;;;;;;;;;;16.71;79.97;100513.33;106356;1260;72686;-81
2023/09/23 01:20:25;;;;;;;;;;;;;;;16.72;80.18;100514.20;106395;1259;60445;-81
2023/09/23 01:22:58;;;;;;;;;;;;;;;16.74;80.17;100514.55;106361;1259;124355;-81
2023/09/23 01:25:25;;;;;;;;;;;;;;;16.73;80.15;100514.19;106396;1259;73957;-82
2023/09/23 01:27:52;;;;;;;;;;;;;;;16.72;80.11;100518.11;106308;1264;124736;-81
2023/09/23 01:30:21;;;;;;;;;;;;;;;16.71;80.10;100521.83;106471;1259;71154;-81
2023/09/23 01:32:49;;;;;;;;;;;;;;;16.70;80.27;100524.67;106447;1260;60456;-81
2023/09/23 01:35:16;;;;;;;;;;;;;;;16.68;80.16;100522.55;106286;1259;124252;-81
2023/09/23 01:37:46;;;;;;;;;;;;;;;16.68;80.22;100519.00;106291;1259;73434;-82
2023/09/23 01:40:19;;;;;;;;;;;;;;;16.67;80.22;100509.98;106261;1259;124644;-80
2023/09/23 01:42:48;;;;;;;;;;;;;;;16.65;80.15;100507.31;106207;1259;72684;-82
2023/09/23 01:45:15;;;;;;;;;;;;;;;16.63;79.98;100509.28;106224;1265;124727;-82
2023/09/23 01:47:41;;;;;;;;;;;;;;;16.60;80.11;100500.08;106336;1260;60595;-82
2023/09/23 01:50:09;;;;;;;;;;;;;;;16.60;80.21;100494.41;106170;1267;73976;-81
2023/09/23 01:52:36;;;;;;;;;;;;;;;16.59;80.23;100488.93;106068;1265;124854;-81
2023/09/23 01:55:05;;;;;;;;;;;;;;;16.58;80.24;100486.09;106321;1262;71186;-81
2023/09/23 01:57:33;;;;;;;;;;;;;;;16.58;80.19;100487.70;106300;1259;124641;-80
2023/09/23 02:00:00;;;;;;;;;;;;;;;16.60;80.33;100489.64;106457;1259;59853;-81
2023/09/23 02:02:27;;;;;;;;;;;;;;;16.59;80.15;100489.81;106380;1260;73642;-81
2023/09/23 02:04:53;;;;;;;;;;;;;;;16.57;80.05;100494.42;106261;1258;125128;-81
2023/09/23 02:07:20;;;;;;;;;;;;;;;16.55;80.18;100490.54;106410;1263;72563;-81
2023/09/23 02:09:46;;;;;;;;;;;;;;;16.54;80.08;100481.69;106271;1263;125030;-81
2023/09/23 02:12:14;;;;;;;;;;;;;;;16.50;80.08;100477.63;106481;1260;60489;-81
2023/09/23 02:14:41;;;;;;;;;;;;;;;16.49;80.19;100487.19;106281;1265;72139;-82
2023/09/23 02:17:08;;;;;;;;;;;;;;;16.50;80.24;100492.86;106341;1259;124527;-82
2023/09/23 02:19:34;;;;;;;;;;;;;;;16.49;80.21;100494.63;106258;1262;72705;-82
2023/09/23 02:22:05;;;;;;;;;;;;;;;16.46;80.28;100493.75;106307;1259;124634;-81
2023/09/23 02:24:33;;;;;;;;;;;;;;;16.43;80.32;100498.38;106242;1259;60555;-82
2023/09/23 02:27:00;;;;;;;;;;;;;;;16.41;80.35;100505.10;105990;1261;124810;-82
2023/09/23 02:29:26;;;;;;;;;;;;;;;16.40;80.36;100506.88;106331;1259;65694;-82
2023/09/23 02:31:53;;;;;;;;;;;;;;;16.38;80.40;100512.20;106440;1259;72457;-82
2023/09/23 02:34:20;;;;;;;;;;;;;;;16.36;80.48;100505.29;106352;1259;125164;-82
2023/09/23 02:36:47;;;;;;;;;;;;;;;16.35;80.54;100504.42;106443;1258;58867;-82
2023/09/23 02:39:16;;;;;;;;;;;;;;;16.35;80.65;100509.37;106176;1259;125106;-82
2023/09/23 02:41:45;;;;;;;;;;;;;;;16.34;80.84;100505.46;106367;1259;65025;-82
2023/09/23 02:44:18;;;;;;;;;;;;;;;16.34;80.89;100501.93;106400;1259;71536;-81
2023/09/23 02:46:46;;;;;;;;;;;;;;;16.35;80.94;100504.59;106308;1259;124740;-81
2023/09/23 02:49:13;;;;;;;;;;;;;;;16.34;80.96;100511.49;106217;1259;60498;-81
2023/09/23 02:51:41;;;;;;;;;;;;;;;16.31;81.01;100501.40;106168;1263;124749;-83
2023/09/23 02:54:09;;;;;;;;;;;;;;;16.32;81.22;100482.98;106362;1259;66266;-81
2023/09/23 02:56:35;;;;;;;;;;;;;;;16.34;81.21;100481.92;108859;1257;72793;-82
2023/09/23 02:59:13;;;;;;;;;;;;;;;16.33;81.27;100484.23;106300;1259;124845;-82
2023/09/23 03:01:42;;;;;;;;;;;;;;;16.34;81.27;100488.47;106286;1259;61083;-82
2023/09/23 03:04:16;;;;;;;;;;;;;;;16.33;81.24;100487.25;106345;1259;124538;-82
2023/09/23 03:06:44;;;;;;;;;;;;;;;16.33;81.35;100475.38;106283;1263;67586;-82
2023/09/23 03:09:10;;;;;;;;;;;;;;;16.33;81.30;100461.75;106214;1264;125167;-81
2023/09/23 03:11:47;;;;;;;;;;;;;;;16.34;81.28;100450.05;106452;1261;60595;-82
2023/09/23 03:14:18;;;;;;;;;;;;;;;16.30;81.05;100442.27;106374;1259;60516;-79
2023/09/23 03:16:49;;;;;;;;;;;;;;;16.27;81.16;100446.01;106029;1266;124405;-82
2023/09/23 03:19:22;;;;;;;;;;;;;;;16.25;81.22;100454.15;106416;1259;65356;-82
2023/09/23 03:21:50;;;;;;;;;;;;;;;16.25;81.28;100466.54;106278;1260;124460;-82
2023/09/23 03:24:17;;;;;;;;;;;;;;;16.25;81.39;100467.95;106370;1259;60478;-80
2023/09/23 03:26:46;;;;;;;;;;;;;;;16.24;81.45;100474.69;106356;1263;60395;-81
2023/09/23 03:29:13;;;;;;;;;;;;;;;16.25;81.58;100480.70;106240;1263;126123;-81
2023/09/23 03:31:40;;;;;;;;;;;;;;;16.23;81.48;100479.11;106381;1263;64619;-81
2023/09/23 03:34:07;;;;;;;;;;;;;;;16.21;81.60;100478.59;106258;1259;124661;-82
2023/09/23 03:36:34;;;;;;;;;;;;;;;16.20;81.61;100474.70;106476;1259;58435;-80
2023/09/23 03:39:00;;;;;;;;;;;;;;;16.20;81.73;100479.30;106269;1264;124650;-81
2023/09/23 03:41:28;;;;;;;;;;;;;;;16.18;81.73;100488.69;106416;1259;72621;-80
2023/09/23 03:43:54;;;;;;;;;;;;;;;16.18;81.71;100492.23;106379;1259;64941;-80
2023/09/23 03:46:21;;;;;;;;;;;;;;;16.19;81.82;100499.66;106321;1259;124477;-81
2023/09/23 03:48:48;;;;;;;;;;;;;;;16.19;81.86;100502.50;106383;1259;60766;-82
2023/09/23 03:51:14;;;;;;;;;;;;;;;16.18;81.77;100497.20;106340;1264;124826;-82
2023/09/23 03:53:42;;;;;;;;;;;;;;;16.17;81.88;100493.30;106375;1259;73868;-82
2023/09/23 03:56:10;;;;;;;;;;;;;;;16.14;81.85;100493.30;106369;1259;65241;-82
2023/09/23 03:58:38;;;;;;;;;;;;;;;16.12;81.98;100494.20;106208;1259;125081;-82
2023/09/23 04:01:13;;;;;;;;;;;;;;;16.13;82.02;100502.16;106330;1263;60560;-82
2023/09/23 04:03:40;;;;;;;;;;;;;;;16.12;82.12;100502.52;106296;1259;124697;-82
2023/09/23 04:06:06;;;;;;;;;;;;;;;16.12;82.18;100504.27;106425;1259;73810;-82
2023/09/23 04:08:33;;;;;;;;;;;;;;;16.11;82.11;100505.16;106369;1259;60384;-81
2023/09/23 04:11:07;;;;;;;;;;;;;;;16.07;82.11;100508.89;106361;1260;124887;-81
2023/09/23 04:13:34;;;;;;;;;;;;;;;16.06;82.15;100513.66;106362;1264;59299;-81
2023/09/23 04:16:00;;;;;;;;;;;;;;;16.04;82.10;100518.45;106339;1263;124800;-81
2023/09/23 04:18:28;;;;;;;;;;;;;;;16.02;82.23;100520.05;106296;1258;72569;-81
2023/09/23 04:20:54;;;;;;;;;;;;;;;16.00;82.21;100523.05;106338;1259;66800;-81
2023/09/23 04:23:21;;;;;;;;;;;;;;;15.99;82.33;100522.02;106237;1265;124192;-81
2023/09/23 04:25:48;;;;;;;;;;;;;;;15.97;82.31;100522.17;106354;1260;60440;-81
2023/09/23 04:28:16;;;;;;;;;;;;;;;15.96;82.46;100526.60;106222;1258;124630;-81
2023/09/23 04:30:42;;;;;;;;;;;;;;;15.96;82.45;100526.95;106303;1265;73889;-81
2023/09/23 04:33:12;;;;;;;;;;;;;;;15.95;82.47;100525.55;106053;1259;125135;-81
2023/09/23 04:35:38;;;;;;;;;;;;;;;15.94;82.48;100526.61;106244;1259;72724;-81
2023/09/23 04:38:05;;;;;;;;;;;;;;;15.93;82.39;100539.70;106273;1259;60732;-81
2023/09/23 04:40:32;;;;;;;;;;;;;;;15.91;82.58;100548.36;106373;1259;124621;-81
2023/09/23 04:42:59;;;;;;;;;;;;;;;15.91;82.59;100555.27;106303;1259;73871;-82
2023/09/23 04:45:25;;;;;;;;;;;;;;;15.91;82.53;100553.50;106316;1264;124980;-81
2023/09/23 04:47:52;;;;;;;;;;;;;;;15.90;82.53;100555.27;106196;1260;72979;-81
2023/09/23 04:50:19;;;;;;;;;;;;;;;15.89;82.64;100565.54;106331;1259;60467;-81
2023/09/23 04:52:46;;;;;;;;;;;;;;;15.89;82.61;100568.90;106277;1258;124624;-82
2023/09/23 04:55:13;;;;;;;;;;;;;;;15.91;82.70;100583.58;106349;1262;73574;-82
2023/09/23 04:57:39;;;;;;;;;;;;;;;15.93;82.89;100595.09;106377;1264;125193;-82
2023/09/23 05:00:09;;;;;;;;;;;;;;;15.96;82.92;100603.95;106387;1259;72726;-81
2023/09/23 05:02:36;;;;;;;;;;;;;;;15.99;82.91;100603.93;106419;1262;60454;-81
2023/09/23 05:05:03;;;;;;;;;;;;;;;16.04;83.00;100593.67;106268;1262;124387;-82
2023/09/23 05:07:30;;;;;;;;;;;;;;;16.09;82.93;100589.61;106451;1259;73876;-82
2023/09/23 05:09:56;;;;;;;;;;;;;;;16.12;82.88;100592.27;106120;1259;124414;-82
2023/09/23 05:12:24;;;;;;;;;;;;;;;16.18;82.79;100594.20;106347;1259;72752;-80
2023/09/23 05:14:51;;;;;;;;;;;;;;;16.22;82.65;100596.33;106378;1259;59673;-81
2023/09/23 05:17:18;;;;;;;;;;;;;;;16.27;82.63;100601.63;106362;1259;125132;-81
2023/09/23 05:19:46;;;;;;;;;;;;;;;16.32;82.66;100592.08;106439;1259;74030;-81
2023/09/23 05:22:13;;;;;;;;;;;;;;;16.41;82.79;100578.95;106278;1259;125041;-81
2023/09/23 05:24:41;;;;;;;;;;;;;;;16.49;82.69;100574.86;106360;1265;72712;-82
2023/09/23 05:27:08;;;;;;;;;;;;;;;16.59;82.50;100589.19;106112;1260;125096;-81
2023/09/23 05:29:34;;;;;;;;;;;;;;;16.65;82.44;100601.05;106214;1259;61616;-81
2023/09/23 05:32:01;;;;;;;;;;;;;;;16.71;82.35;100601.39;106283;1262;73864;-81
2023/09/23 05:34:27;;;;;;;;;;;;;;;16.80;82.23;100602.96;106367;1262;124461;-81
2023/09/23 05:36:54;;;;;;;;;;;;;;;16.90;82.30;100611.47;106309;1264;72733;-81
2023/09/23 05:39:21;;;;;;;;;;;;;;;17.05;82.34;100621.70;106247;1262;124898;-82
2023/09/23 05:41:47;;;;;;;;;;;;;;;17.20;82.22;100623.05;106235;1259;59957;-81
2023/09/23 05:44:16;;;;;;;;;;;;;;;17.34;82.08;100627.25;106376;1262;73175;-81
2023/09/23 05:46:43;;;;;;;;;;;;;;;17.51;82.09;100625.04;106037;1267;124413;-81
2023/09/23 05:49:12;;;;;;;;;;;;;;;17.67;81.88;100632.04;106247;1260;71481;-81
2023/09/23 05:51:39;;;;;;;;;;;;;;;17.82;81.67;100646.34;106296;1259;124728;-81
2023/09/23 05:54:09;;;;;;;;;;;;;;;17.92;81.25;100660.30;106254;1261;60451;-81
2023/09/23 05:56:35;;;;;;;;;;;;;;;18.00;80.83;100672.34;106258;1263;73084;-81
2023/09/23 05:59:02;;;;;;;;;;;;;;;18.06;80.67;100680.44;106094;1260;124484;-82
2023/09/23 06:01:28;;;;;;;;;;;;;;;18.13;80.56;100672.95;106218;1264;70604;-83
2023/09/23 06:03:56;;;;;;;;;;;;;;;18.14;80.27;100670.45;106260;1261;124857;-83
2023/09/23 06:06:23;;;;;;;;;;;;;;;18.13;80.04;100674.73;106363;1264;60379;-83
2023/09/23 06:08:50;;;;;;;;;;;;;;;18.15;79.96;100677.20;106436;1261;75040;-83
2023/09/23 06:11:17;;;;;;;;;;;;;;;18.20;79.91;100670.78;106317;1263;124418;-83
2023/09/23 06:13:44;;;;;;;;;;;;;;;18.23;79.68;100663.98;106194;1262;72674;-83
2023/09/23 06:16:10;;;;;;;;;;;;;;;18.28;79.72;100668.91;106288;1265;124747;-82
2023/09/23 06:18:37;;;;;;;;;;;;;;;18.37;79.73;100675.60;106259;1262;60538;-83
2023/09/23 06:21:04;;;;;;;;;;;;;;;18.42;79.37;100668.98;106192;1259;125200;-82
2023/09/23 06:23:30;;;;;;;;;;;;;;;18.41;79.05;100659.93;106411;1262;66463;-82
2023/09/23 06:26:00;;;;;;;;;;;;;;;18.40;78.90;100653.73;106191;1261;72415;-82
2023/09/23 06:28:27;;;;;;;;;;;;;;;18.38;78.66;100650.38;106195;1259;124578;-82
2023/09/23 06:30:53;;;;;;;;;;;;;;;18.40;78.76;100654.26;106252;1259;59302;-82
2023/09/23 06:33:20;;;;;;;;;;;;;;;18.46;78.59;100647.09;106267;1259;124831;-82
2023/09/23 06:35:47;;;;;;;;;;;;;;;18.51;78.35;100643.86;106394;1260;64749;-82
2023/09/23 06:38:13;;;;;;;;;;;;;;;18.54;78.24;100640.98;106383;1263;72749;-82
2023/09/23 06:40:40;;;;;;;;;;;;;;;18.57;78.07;100646.64;106312;1260;124502;-83
2023/09/23 06:43:07;;;;;;;;;;;;;;;18.59;77.81;100646.27;106371;1264;60309;-81
2023/09/23 06:45:33;;;;;;;;;;;;;;;18.59;77.67;100636.14;106454;1264;124183;-81
2023/09/23 06:48:00;;;;;;;;;;;;;;;18.60;77.54;100633.80;106513;1263;59207;-81
2023/09/23 06:50:27;;;;;;;;;;;;;;;18.63;77.37;100643.39;106413;1259;72757;-81
2023/09/23 06:52:54;;;;;;;;;;;;;;;18.65;77.38;100656.70;106344;1259;123976;-81
2023/09/23 06:55:21;;;;;;;;;;;;;;;18.64;77.24;100660.80;106379;1262;60455;-81
2023/09/23 06:57:48;;;;;;;;;;;;;;;18.62;77.07;100664.19;106209;1263;123896;-81
2023/09/23 07:00:16;;;;;;;;;;;;;;;18.58;77.04;100669.38;106319;1259;65242;-81
2023/09/23 07:02:42;;;;;;;;;;;;;;;18.52;76.89;100667.13;106119;1265;72643;-80
2023/09/23 07:05:10;;;;;;;;;;;;;;;18.41;76.60;100662.43;106230;1264;123697;-81
2023/09/23 07:07:36;;;;;;;;;;;;;;;18.29;76.44;100667.14;106379;1261;60109;-81
2023/09/23 07:10:04;;;;;;;;;;;;;;;18.18;76.53;100675.04;106329;1264;124142;-81
2023/09/23 07:12:30;;;;;;;;;;;;;;;18.12;76.60;100678.45;106345;1260;66786;-82
2023/09/23 07:14:58;;;;;;;;;;;;;;;18.11;76.75;100679.01;106012;1261;124864;-82
2023/09/23 07:17:25;;;;;;;;;;;;;;;18.14;76.86;100686.62;106452;1262;60470;-82
2023/09/23 07:19:52;;;;;;;;;;;;;;;18.18;76.76;100699.02;106373;1263;60414;-81
2023/09/23 07:22:19;;;;;;;;;;;;;;;18.24;76.85;100703.23;106257;1262;124718;-81
2023/09/23 07:24:46;;;;;;;;;;;;;;;18.35;76.96;100708.65;106427;1264;64834;-82
2023/09/23 07:27:13;;;;;;;;;;;;;;;18.45;76.83;100711.25;106039;1259;124818;-81
2023/09/23 07:29:39;;;;;;;;;;;;;;;18.58;76.93;100713.27;106384;1261;60452;-81
2023/09/23 07:32:06;;;;;;;;;;;;;;;18.73;76.59;100705.67;106376;1259;60221;-82
2023/09/23 07:34:33;;;;;;;;;;;;;;;18.84;76.26;100707.39;106269;1262;124409;-82
2023/09/23 07:37:00;;;;;;;;;;;;;;;18.93;76.05;100711.39;106277;1264;64846;-82
2023/09/23 07:39:28;;;;;;;;;;;;;;;19.06;75.96;100711.27;106246;1259;124766;-82
2023/09/23 07:41:54;;;;;;;;;;;;;;;19.17;75.70;100717.17;106410;1270;60674;-83
2023/09/23 07:44:21;;;;;;;;;;;;;;;19.28;75.41;100728.09;106387;1261;59900;-83
2023/09/23 07:46:48;;;;;;;;;;;;;;;19.35;75.02;100726.41;106151;1260;124434;-82
2023/09/23 07:49:14;;;;;;;;;;;;;;;19.38;74.69;100718.01;106412;1270;65046;-83
2023/09/23 07:51:41;;;;;;;;;;;;;;;19.41;74.43;100710.33;106288;1264;124829;-83
2023/09/23 07:54:08;;;;;;;;;;;;;;;19.45;74.54;100719.00;106275;1259;60525;-83
2023/09/23 07:56:34;;;;;;;;;;;;;;;19.57;74.61;100716.70;106471;1264;60545;-84
2023/09/23 07:59:01;;;;;;;;;;;;;;;19.70;74.24;100702.31;106144;1265;124110;-83
2023/09/23 08:01:29;;;;;;;;;;;;;;;19.80;74.12;100704.69;106305;1263;65421;-82
2023/09/23 08:03:55;;;;;;;;;;;;;;;19.90;73.72;100709.37;106288;1259;123839;-83
2023/09/23 08:06:22;;;;;;;;;;;;;;;19.97;73.64;100708.19;106310;1265;60571;-82
2023/09/23 08:08:49;;;;;;;;;;;;;;;20.13;73.53;100708.33;106351;1262;60478;-82
2023/09/23 08:11:15;;;;;;;;;;;;;;;20.31;73.26;100712.67;106345;1264;124447;-83
2023/09/23 08:13:42;;;;;;;;;;;;;;;20.51;73.27;100713.06;106426;1259;64738;-82
2023/09/23 08:16:09;;;;;;;;;;;;;;;20.68;72.80;100711.55;106215;1258;124037;-82
2023/09/23 08:18:35;;;;;;;;;;;;;;;20.88;72.90;100716.73;106328;1263;58874;-82
2023/09/23 08:21:02;;;;;;;;;;;;;;;21.11;72.36;100727.91;106362;1262;124919;-82
2023/09/23 08:23:29;;;;;;;;;;;;;;;21.34;71.86;100736.03;106392;1265;74102;-81
2023/09/23 08:25:56;;;;;;;;;;;;;;;21.49;71.28;100732.55;106429;1259;64701;-83
2023/09/23 08:28:23;;;;;;;;;;;;;;;21.60;70.68;100729.81;106217;1263;123827;-81
2023/09/23 08:30:51;;;;;;;;;;;;;;;21.70;70.44;100733.19;106085;1263;61072;-82
2023/09/23 08:33:17;;;;;;;;;;;;;;;21.82;70.18;100751.52;106092;1260;123919;-82
2023/09/23 08:35:48;;;;;;;;;;;;;;;21.91;69.68;100759.54;106379;1260;72609;-82
2023/09/23 08:38:15;;;;;;;;;;;;;;;21.98;69.48;100768.67;106378;1265;66289;-82
2023/09/23 08:40:42;;;;;;;;;;;;;;;22.05;69.15;100782.81;106222;1263;124464;-82
2023/09/23 08:43:09;;;;;;;;;;;;;;;22.11;68.80;100794.83;106310;1260;60680;-82
2023/09/23 08:45:37;;;;;;;;;;;;;;;22.09;68.35;100792.19;106424;1261;124723;-82
2023/09/23 08:48:05;;;;;;;;;;;;;;;22.10;68.40;100777.34;106415;1263;73111;-83
2023/09/23 08:50:32;;;;;;;;;;;;;;;22.08;68.42;100745.57;106191;1260;65125;-83
2023/09/23 08:52:59;;;;;;;;;;;;;;;22.03;68.13;100728.36;106065;1259;124500;-82
2023/09/23 08:55:25;;;;;;;;;;;;;;;21.91;68.01;100744.33;106401;1261;58555;-82
2023/09/23 08:57:52;;;;;;;;;;;;;;;21.83;67.77;100761.84;106184;1264;123789;-82
2023/09/23 09:00:18;;;;;;;;;;;;;;;21.80;67.85;100761.56;106222;1260;73987;-81
2023/09/23 09:02:45;;;;;;;;;;;;;;;21.84;67.97;100756.65;106307;1260;66118;-81
2023/09/23 09:05:14;;;;;;;;;;;;;;;21.91;67.96;100760.42;106232;1261;123759;-81
2023/09/23 09:07:40;;;;;;;;;;;;;;;21.97;67.59;100774.59;106372;1260;60463;-82
2023/09/23 09:10:07;;;;;;;;;;;;;;;22.09;67.62;100765.91;106161;1264;123806;-82
2023/09/23 09:12:34;;;;;;;;;;;;;;;22.28;67.43;100758.73;106231;1267;73780;-82
2023/09/23 09:15:01;;;;;;;;;;;;;;;22.42;67.00;100754.84;106128;1265;123859;-83
2023/09/23 09:17:27;;;;;;;;;;;;;;;22.46;66.32;100753.66;106214;1264;72366;-83
2023/09/23 09:19:54;;;;;;;;;;;;;;;22.49;66.23;100758.23;106269;1262;202545;-83
2023/09/23 09:22:21;;;;;;;;;;;;;;;22.48;65.85;100756.81;106330;1260;124035;-81
2023/09/23 09:24:47;;;;;;;;;;;;;;;22.50;65.83;100755.34;106230;1262;73025;-83
2023/09/23 09:27:14;;;;;;;;;;;;;;;22.55;65.50;100745.77;106283;1265;124307;-81
2023/09/23 09:29:41;;;;;;;;;;;;;;;22.58;65.30;100740.84;106238;1259;72804;-81
2023/09/23 09:32:09;;;;;;;;;;;;;;;22.60;65.29;100744.91;106281;1264;60767;-81
2023/09/23 09:34:46;;;;;;;;;;;;;;;22.62;64.94;100742.55;106351;1261;124109;-81
2023/09/23 09:37:15;;;;;;;;;;;;;;;22.61;64.79;100747.74;106334;1261;72632;-84
2023/09/23 09:39:48;;;;;;;;;;;;;;;22.60;64.49;100751.37;106271;1264;123862;-83
2023/09/23 09:42:16;;;;;;;;;;;;;;;22.54;64.44;100756.52;106433;1264;72776;-83
2023/09/23 09:44:43;;;;;;;;;;;;;;;22.48;64.32;100755.75;106311;1260;60374;-82
2023/09/23 09:47:10;;;;;;;;;;;;;;;22.43;64.10;100751.77;106328;1263;123909;-83
2023/09/23 09:49:37;;;;;;;;;;;;;;;22.34;64.11;100757.17;106351;1263;73146;-84
2023/09/23 09:52:04;;;;;;;;;;;;;;;22.30;64.06;100767.27;106213;1261;124008;-83
2023/09/23 09:54:32;;;;;;;;;;;;;;;22.27;63.89;100771.80;106339;1260;72632;-84
2023/09/23 09:56:59;;;;;;;;;;;;;;;22.26;63.48;100774.16;106302;1264;124012;-84
2023/09/23 09:59:29;;;;;;;;;;;;;;;22.24;63.69;100777.39;106316;1264;59390;-85
2023/09/23 10:01:56;;;;;;;;;;;;;;;22.22;63.62;100776.55;106308;1259;75047;-84
2023/09/23 10:04:27;;;;;;;;;;;;;;;22.26;63.50;100777.37;106231;1259;124498;-84
2023/09/23 10:06:54;;;;;;;;;;;;;;;22.23;63.12;100782.95;106476;1263;72928;-84
2023/09/23 10:09:27;;;;;;;;;;;;;;;22.13;62.72;100788.89;106338;1262;124390;-82
2023/09/23 10:11:54;;;;;;;;;;;;;;;22.07;62.94;100796.52;106330;1264;60500;-82
2023/09/23 10:14:24;;;;;;;;;;;;;;;22.05;62.76;100799.09;106224;1261;73489;-82
2023/09/23 10:16:52;;;;;;;;;;;;;;;22.05;62.61;100801.39;106302;1264;124269;-82
2023/09/23 10:19:49;;;;;;;;;;;;;;;22.06;62.85;100808.16;106203;1260;72685;-82
2023/09/23 10:22:20;;;;;;;;;;;;;;;22.06;62.98;100815.48;106055;1264;124788;-82
2023/09/23 10:25:00;;;;;;;;;;;;;;;22.08;63.25;100812.95;106254;1265;60460;-82
2023/09/23 10:27:27;;;;;;;;;;;;;;;22.15;63.32;100815.48;106320;1265;124284;-82
2023/09/23 10:29:54;;;;;;;;;;;;;;;22.21;63.35;100817.67;106243;1266;66343;-83
2023/09/23 10:32:21;;;;;;;;;;;;;;;22.25;62.88;100818.32;106357;1264;71405;-82
2023/09/23 10:34:49;;;;;;;;;;;;;;;22.28;62.88;100811.46;106225;1261;123704;-82
2023/09/23 10:37:24;;;;;;;;;;;;;;;22.31;62.51;100813.55;106462;1263;60376;-82
2023/09/23 10:39:51;;;;;;;;;;;;;;;22.25;62.32;100817.59;106276;1260;124051;-83
2023/09/23 10:42:17;;;;;;;;;;;;;;;22.16;62.34;100821.17;106376;1263;65087;-83
2023/09/23 10:44:50;;;;;;;;;;;;;;;22.16;62.39;100823.33;106465;1263;72881;-82
2023/09/23 10:47:16;;;;;;;;;;;;;;;22.19;62.39;100825.59;106286;1260;123656;-83
2023/09/23 10:49:43;;;;;;;;;;;;;;;22.20;62.26;100828.77;106314;1263;60457;-82
2023/09/23 10:52:10;;;;;;;;;;;;;;;22.18;61.94;100827.74;106357;1261;123925;-82
2023/09/23 10:54:36;;;;;;;;;;;;;;;22.25;61.80;100833.70;106295;1259;66257;-83
2023/09/23 10:57:03;;;;;;;;;;;;;;;22.30;61.66;100833.95;106295;1260;123919;-84
2023/09/23 10:59:30;;;;;;;;;;;;;;;22.30;61.39;100830.92;106451;1260;60574;-84
2023/09/23 11:01:57;;;;;;;;;;;;;;;22.25;61.14;100833.16;106350;1264;60448;-83
2023/09/23 11:04:23;;;;;;;;;;;;;;;22.28;61.34;100833.09;106309;1260;124762;-84
2023/09/23 11:06:50;;;;;;;;;;;;;;;22.39;61.52;100836.25;106473;1263;66417;-82
2023/09/23 11:09:23;;;;;;;;;;;;;;;22.45;61.07;100836.29;106291;1261;123991;-82
2023/09/23 11:11:50;;;;;;;;;;;;;;;22.51;61.15;100836.34;106292;1264;58862;-83
2023/09/23 11:14:16;;;;;;;;;;;;;;;22.60;61.05;100831.30;106319;1260;60584;-82
2023/09/23 11:16:46;;;;;;;;;;;;;;;22.67;60.74;100827.55;106156;1266;123930;-82
2023/09/23 11:19:13;;;;;;;;;;;;;;;22.76;60.68;100824.83;106444;1264;65147;-82
2023/09/23 11:21:48;;;;;;;;;;;;;;;22.84;60.62;100822.86;105969;1264;125555;-82
2023/09/23 11:24:15;;;;;;;;;;;;;;;22.93;60.59;100821.37;106454;1264;59238;-83
2023/09/23 11:26:41;;;;;;;;;;;;;;;22.96;60.44;100823.61;106305;1261;60484;-83
2023/09/23 11:29:08;;;;;;;;;;;;;;;22.99;60.38;100822.48;106283;1260;123944;-83
2023/09/23 11:31:35;;;;;;;;;;;;;;;22.97;60.16;100819.86;106463;1261;65989;-84
2023/09/23 11:34:02;;;;;;;;;;;;;;;22.94;59.87;100814.01;106398;1264;123887;-82
2023/09/23 11:36:28;;;;;;;;;;;;;;;22.96;59.84;100816.11;106331;1265;60523;-82
2023/09/23 11:38:55;;;;;;;;;;;;;;;22.94;59.66;100820.10;106319;1260;60404;-84
2023/09/23 11:41:22;;;;;;;;;;;;;;;22.98;59.75;100820.73;106482;1263;72422;-82
2023/09/23 11:43:50;;;;;;;;;;;;;;;23.05;59.56;100824.67;106313;1260;66504;-82
2023/09/23 11:46:19;;;;;;;;;;;;;;;23.15;59.39;100824.96;106083;1263;123935;-82
2023/09/23 11:48:48;;;;;;;;;;;;;;;23.21;58.97;100822.30;106345;1261;60636;-82
2023/09/23 11:51:17;;;;;;;;;;;;;;;23.24;58.93;100829.55;107024;1263;124453;-82
2023/09/23 11:53:44;;;;;;;;;;;;;;;23.19;58.65;100831.85;106297;1261;74004;-82
2023/09/23 11:56:18;;;;;;;;;;;;;;;23.18;58.62;100835.82;106533;1262;66360;-84
2023/09/23 11:58:45;;;;;;;;;;;;;;;23.23;58.80;100834.95;106147;1261;124456;-84
2023/09/23 12:01:12;;;;;;;;;;;;;;;23.25;58.54;100827.04;106326;1260;60552;-82
2023/09/23 12:03:38;;;;;;;;;;;;;;;23.24;58.47;100827.05;106372;1264;124452;-82
2023/09/23 12:06:05;;;;;;;;;;;;;;;23.17;58.25;100829.92;106366;1260;72558;-83
2023/09/23 12:08:31;;;;;;;;;;;;;;;23.09;58.38;100832.81;106334;1260;65001;-83
2023/09/23 12:10:59;;;;;;;;;;;;;;;23.05;58.41;100830.23;106349;1263;123945;-83
2023/09/23 12:13:25;;;;;;;;;;;;;;;22.98;58.24;100828.95;106395;1263;60452;-82
2023/09/23 12:15:52;;;;;;;;;;;;;;;22.91;58.36;100831.62;106367;1263;124499;-84
2023/09/23 12:18:19;;;;;;;;;;;;;;;22.85;58.30;100830.52;106447;1261;73929;-82
2023/09/23 12:20:45;;;;;;;;;;;;;;;22.79;58.10;100828.71;106481;1261;66395;-82
2023/09/23 12:23:15;;;;;;;;;;;;;;;22.72;58.31;100819.55;106388;1258;123789;-82
2023/09/23 12:25:42;;;;;;;;;;;;;;;22.65;58.13;100811.13;106417;1261;60471;-82